Time;durP1;ratioP1;P1;durP2;ratioP2;P2;SDS_P1;SDS_P2;PMS_P1;PMS_P2;Temp;Humidity;BMP_temperature;BMP_pressure;BME280_temperature;BME280_humidity;BME280_pressure;Samples;Min_cycle;Max_cycle;Signal;HPM_P1;HPM_P2
2024/01/12 00:02:23;;;;;;;15.83;9.53;;;1.90;87.20;;;;;;5107995;28;20731;-64
2024/01/12 00:04:52;;;;;;;15.17;8.23;;;2.00;85.70;;;;;;5107638;28;20762;-64
2024/01/12 00:07:20;;;;;;;17.47;9.27;;;2.00;84.40;;;;;;5107851;28;20655;-63
2024/01/12 00:09:49;;;;;;;13.90;8.13;;;2.00;84.60;;;;;;5108921;28;20217;-63
2024/01/12 00:12:17;;;;;;;13.43;8.23;;;1.90;86.80;;;;;;5111967;28;20202;-63
2024/01/12 00:14:45;;;;;;;17.80;11.53;;;1.90;87.50;;;;;;5111411;28;20196;-63
2024/01/12 00:17:14;;;;;;;26.73;12.73;;;1.80;87.30;;;;;;5111574;28;20191;-63
2024/01/12 00:19:44;;;;;;;26.17;14.30;;;1.90;88.00;;;;;;5111785;28;20194;-62
2024/01/12 00:22:12;;;;;;;27.27;13.43;;;2.00;86.90;;;;;;5111694;28;20201;-63
2024/01/12 00:24:40;;;;;;;24.50;12.63;;;2.00;86.70;;;;;;5111604;28;20260;-64
2024/01/12 00:27:09;;;;;;;22.90;12.17;;;2.10;85.80;;;;;;5111520;28;20204;-63
2024/01/12 00:29:37;;;;;;;23.73;13.07;;;2.10;84.90;;;;;;5111680;28;20592;-64
2024/01/12 00:32:06;;;;;;;29.80;15.60;;;2.20;86.40;;;;;;5110608;28;20305;-62
2024/01/12 00:34:34;;;;;;;31.83;16.77;;;2.20;84.80;;;;;;5111494;28;20202;-63
2024/01/12 00:37:04;;;;;;;38.60;16.40;;;2.20;83.50;;;;;;5111267;28;20569;-62
2024/01/12 00:39:33;;;;;;;28.20;14.67;;;2.10;82.60;;;;;;5111403;28;20218;-64
2024/01/12 00:42:01;;;;;;;20.40;10.97;;;2.20;83.50;;;;;;5111247;28;20622;-61
2024/01/12 00:44:29;;;;;;;13.90;7.63;;;2.20;86.10;;;;;;5111166;28;20219;-62
2024/01/12 00:46:58;;;;;;;15.63;7.73;;;2.00;87.30;;;;;;5110654;28;20205;-62
2024/01/12 00:49:26;;;;;;;12.83;7.13;;;1.90;85.40;;;;;;5110717;28;20257;-63
2024/01/12 00:51:55;;;;;;;10.77;6.07;;;2.00;84.30;;;;;;5110998;28;20661;-63
2024/01/12 00:54:26;;;;;;;14.83;6.67;;;1.90;85.00;;;;;;5110852;28;20196;-64
2024/01/12 00:56:55;;;;;;;13.57;7.27;;;1.90;85.80;;;;;;5111505;28;20211;-64
2024/01/12 00:59:24;;;;;;;11.73;6.57;;;1.90;83.80;;;;;;5111251;28;20210;-63
2024/01/12 01:01:56;;;;;;;9.67;6.03;;;2.00;83.00;;;;;;5110344;28;20721;-63
2024/01/12 01:04:26;;;;;;;10.70;5.73;;;2.10;82.90;;;;;;5110807;28;20293;-62
2024/01/12 01:06:55;;;;;;;12.83;5.97;;;2.20;82.50;;;;;;5110823;28;20955;-62
2024/01/12 01:09:25;;;;;;;11.27;6.70;;;2.20;82.40;;;;;;5110968;28;20190;-62
2024/01/12 01:11:53;;;;;;;10.43;6.47;;;2.40;80.60;;;;;;5111004;28;20195;-62
2024/01/12 01:14:24;;;;;;;14.20;6.33;;;2.50;80.00;;;;;;5110873;28;20191;-63
2024/01/12 01:16:53;;;;;;;9.40;5.97;;;2.60;79.90;;;;;;5110466;28;20670;-62
2024/01/12 01:19:21;;;;;;;12.03;4.83;;;2.60;77.40;;;;;;5111284;28;20203;-62
2024/01/12 01:21:50;;;;;;;6.83;5.10;;;2.60;80.00;;;;;;5110691;28;20194;-63
2024/01/12 01:24:18;;;;;;;9.43;5.00;;;2.60;79.30;;;;;;5110918;28;20695;-63
2024/01/12 01:26:48;;;;;;;9.53;4.37;;;2.60;78.00;;;;;;5110851;28;20219;-64
2024/01/12 01:29:16;;;;;;;6.77;4.27;;;2.50;75.00;;;;;;5110852;28;20249;-64
2024/01/12 01:31:45;;;;;;;6.03;3.73;;;2.60;73.60;;;;;;5109960;28;20223;-62
2024/01/12 01:34:13;;;;;;;4.93;3.27;;;2.50;73.60;;;;;;5110552;28;20230;-62
2024/01/12 01:36:42;;;;;;;5.60;4.13;;;2.50;73.20;;;;;;5110101;28;20198;-62
2024/01/12 01:39:10;;;;;;;4.90;3.73;;;2.60;74.50;;;;;;5109811;28;20213;-63
2024/01/12 01:41:38;;;;;;;6.40;3.53;;;2.60;76.70;;;;;;5110066;28;20953;-63
2024/01/12 01:44:08;;;;;;;7.23;3.47;;;2.70;78.10;;;;;;5109637;28;20274;-62
2024/01/12 01:46:37;;;;;;;6.93;3.73;;;2.80;79.00;;;;;;5109510;28;20658;-63
2024/01/12 01:49:05;;;;;;;5.00;3.77;;;2.80;82.60;;;;;;5109354;28;20236;-62
2024/01/12 01:51:34;;;;;;;5.87;4.20;;;2.80;86.50;;;;;;5109979;28;20235;-64
2024/01/12 01:54:03;;;;;;;12.07;5.77;;;2.80;87.50;;;;;;5109682;28;20200;-63
2024/01/12 01:56:31;;;;;;;14.43;7.73;;;2.80;89.50;;;;;;5109289;28;20193;-62
2024/01/12 01:59:00;;;;;;;6.37;4.30;;;2.80;90.30;;;;;;5109645;28;20720;-64
2024/01/12 02:01:29;;;;;;;12.47;6.30;;;2.70;86.90;;;;;;5109236;28;20207;-64
2024/01/12 02:03:58;;;;;;;10.00;5.87;;;2.70;88.80;;;;;;5108976;28;20233;-62
2024/01/12 02:06:27;;;;;;;17.30;9.27;;;2.80;87.50;;;;;;5109351;28;20248;-62
2024/01/12 02:08:56;;;;;;;20.40;12.00;;;2.80;88.50;;;;;;5109438;28;20684;-62
2024/01/12 02:11:24;;;;;;;35.20;17.73;;;2.80;89.90;;;;;;5109208;28;20224;-62
2024/01/12 02:13:53;;;;;;;33.43;16.83;;;2.70;91.10;;;;;;5108819;28;20201;-63
2024/01/12 02:16:21;;;;;;;29.70;17.43;;;2.80;91.80;;;;;;5108956;28;20216;-63
2024/01/12 02:18:51;;;;;;;33.80;17.37;;;2.80;91.70;;;;;;5108551;28;20207;-63
2024/01/12 02:21:20;;;;;;;36.20;17.23;;;2.70;90.60;;;;;;5108867;28;20190;-64
2024/01/12 02:23:49;;;;;;;31.03;16.40;;;2.70;90.70;;;;;;5090705;28;20216;-64
2024/01/12 02:26:17;;;;;;;33.93;16.90;;;2.70;91.20;;;;;;5108835;28;20927;-64
2024/01/12 02:28:47;;;;;;;32.87;17.43;;;2.70;91.10;;;;;;5108700;28;20201;-63
2024/01/12 02:31:16;;;;;;;34.97;17.93;;;2.70;91.00;;;;;;5109438;28;20221;-63
2024/01/12 02:33:47;;;;;;;28.77;16.73;;;2.70;91.50;;;;;;5108881;28;20231;-63
2024/01/12 02:36:16;;;;;;;28.83;15.70;;;2.70;92.60;;;;;;5109652;28;20197;-63
2024/01/12 02:38:49;;;;;;;32.80;16.17;;;2.80;92.90;;;;;;5109537;28;20532;-62
2024/01/12 02:41:18;;;;;;;33.37;17.47;;;2.80;92.40;;;;;;5109419;28;20224;-62
2024/01/12 02:43:46;;;;;;;38.60;17.30;;;2.80;91.20;;;;;;5109358;28;20189;-62
2024/01/12 02:46:15;;;;;;;30.87;15.67;;;2.80;91.20;;;;;;5109332;28;20657;-62
2024/01/12 02:48:43;;;;;;;29.80;14.93;;;2.80;91.30;;;;;;5109112;28;20236;-63
2024/01/12 02:51:11;;;;;;;31.50;15.30;;;2.70;90.50;;;;;;5109291;28;20684;-63
2024/01/12 02:53:39;;;;;;;24.43;12.77;;;2.70;91.50;;;;;;5109303;28;20195;-63
2024/01/12 02:56:11;;;;;;;20.00;11.23;;;2.80;93.20;;;;;;5109410;28;20264;-63
2024/01/12 02:58:39;;;;;;;18.97;10.07;;;2.70;92.70;;;;;;5109579;28;20192;-64
2024/01/12 03:01:07;;;;;;;18.47;10.73;;;2.70;92.10;;;;;;5109374;28;20192;-64
2024/01/12 03:03:36;;;;;;;17.00;9.13;;;2.70;92.20;;;;;;5108717;28;20591;-64
2024/01/12 03:06:05;;;;;;;18.57;10.63;;;2.80;90.60;;;;;;5109283;28;20201;-63
2024/01/12 03:08:33;;;;;;;20.20;9.77;;;2.80;91.30;;;;;;5109263;28;20205;-63
2024/01/12 03:11:01;;;;;;;19.37;10.27;;;2.80;92.50;;;;;;5109085;28;20219;-63
2024/01/12 03:13:33;;;;;;;12.83;7.77;;;2.80;94.30;;;;;;5109423;28;20196;-64
2024/01/12 03:16:01;;;;;;;13.53;7.37;;;2.70;94.50;;;;;;5109253;28;20567;-63
2024/01/12 03:18:29;;;;;;;12.73;8.10;;;2.70;94.50;;;;;;5108986;28;20198;-64
2024/01/12 03:20:58;;;;;;;12.50;7.07;;;2.80;95.30;;;;;;5109318;28;20673;-63
2024/01/12 03:23:26;;;;;;;10.60;6.00;;;2.80;95.60;;;;;;5109313;28;20193;-63
2024/01/12 03:25:54;;;;;;;11.03;5.90;;;2.70;96.60;;;;;;5109271;28;20702;-63
2024/01/12 03:28:23;;;;;;;8.20;4.40;;;2.70;95.60;;;;;;5109183;28;20605;-63
2024/01/12 03:30:53;;;;;;;5.73;3.60;;;2.70;92.20;;;;;;5109025;28;20217;-63
2024/01/12 03:33:21;;;;;;;7.50;4.10;;;2.60;92.00;;;;;;5108611;28;20548;-64
2024/01/12 03:35:49;;;;;;;5.43;3.53;;;2.50;90.20;;;;;;5090667;28;20210;-64
2024/01/12 03:38:18;;;;;;;9.23;4.10;;;2.40;90.00;;;;;;5108943;28;20208;-65
2024/01/12 03:40:46;;;;;;;5.03;3.50;;;2.50;91.20;;;;;;5109157;28;20195;-64
2024/01/12 03:43:14;;;;;;;4.87;4.00;;;2.50;88.70;;;;;;5109090;28;20274;-64
2024/01/12 03:45:43;;;;;;;4.07;3.53;;;2.40;85.50;;;;;;5111105;28;20681;-64
2024/01/12 03:48:12;;;;;;;6.63;4.30;;;2.40;85.00;;;;;;5112820;28;20193;-65
2024/01/12 03:50:41;;;;;;;7.20;4.50;;;2.60;86.70;;;;;;5112961;28;20204;-64
2024/01/12 03:53:09;;;;;;;9.27;4.27;;;2.60;85.50;;;;;;5112754;28;20290;-64
2024/01/12 03:55:38;;;;;;;5.53;4.10;;;2.70;83.30;;;;;;5112764;28;20216;-64
2024/01/12 03:58:06;;;;;;;8.23;3.50;;;2.60;82.40;;;;;;5112804;28;20197;-64
2024/01/12 04:00:34;;;;;;;7.23;3.97;;;2.50;82.70;;;;;;5112812;28;20189;-64
2024/01/12 04:03:03;;;;;;;9.23;4.23;;;2.50;83.20;;;;;;5112262;28;20258;-63
2024/01/12 04:05:33;;;;;;;4.73;3.80;;;2.50;83.00;;;;;;5112542;28;20214;-64
2024/01/12 04:08:02;;;;;;;7.17;3.20;;;2.60;82.50;;;;;;5112412;28;20201;-63
2024/01/12 04:10:30;;;;;;;3.83;2.80;;;2.60;82.10;;;;;;5112495;28;20257;-64
2024/01/12 04:12:58;;;;;;;6.80;3.10;;;2.60;82.60;;;;;;5112545;28;20217;-63
2024/01/12 04:15:27;;;;;;;7.30;3.57;;;2.60;82.60;;;;;;5112517;28;20206;-64
2024/01/12 04:17:55;;;;;;;3.30;2.87;;;2.60;82.80;;;;;;5112389;28;20657;-64
2024/01/12 04:20:23;;;;;;;4.60;3.53;;;2.60;83.30;;;;;;5112098;28;20570;-64
2024/01/12 04:22:53;;;;;;;8.10;3.27;;;2.60;84.20;;;;;;5112228;28;20203;-64
2024/01/12 04:25:21;;;;;;;4.83;3.13;;;2.70;85.30;;;;;;5112004;28;20204;-63
2024/01/12 04:27:50;;;;;;;5.37;3.30;;;2.80;84.40;;;;;;5111990;28;20193;-63
2024/01/12 04:30:18;;;;;;;7.17;2.90;;;2.80;83.60;;;;;;5111716;28;20605;-64
2024/01/12 04:32:46;;;;;;;5.90;3.60;;;2.80;83.90;;;;;;5111665;28;20233;-64
2024/01/12 04:35:15;;;;;;;8.40;3.83;;;2.90;84.50;;;;;;5111667;28;20193;-64
2024/01/12 04:37:43;;;;;;;4.23;3.27;;;2.90;83.80;;;;;;5111904;28;20193;-64
2024/01/12 04:40:13;;;;;;;5.87;2.93;;;2.80;83.70;;;;;;5111490;28;20727;-64
2024/01/12 04:42:42;;;;;;;5.03;3.10;;;2.70;85.60;;;;;;5111590;28;20201;-64
2024/01/12 04:45:10;;;;;;;4.93;3.23;;;2.60;85.60;;;;;;5111672;28;20559;-64
2024/01/12 04:47:38;;;;;;;4.23;3.23;;;2.60;86.30;;;;;;5111677;28;20189;-64
2024/01/12 04:50:07;;;;;;;4.37;2.73;;;2.50;86.60;;;;;;5092479;28;20527;-64
2024/01/12 04:52:36;;;;;;;3.70;2.53;;;2.40;87.10;;;;;;5111413;28;20569;-64
2024/01/12 04:55:04;;;;;;;5.23;3.17;;;2.40;87.80;;;;;;5111530;28;20199;-64
2024/01/12 04:57:34;;;;;;;3.77;2.77;;;2.50;88.00;;;;;;5110826;28;20209;-64
2024/01/12 05:00:03;;;;;;;3.77;3.00;;;2.50;86.50;;;;;;5111237;28;20664;-63
2024/01/12 05:02:31;;;;;;;4.43;3.27;;;2.40;87.10;;;;;;5110826;28;20237;-63
2024/01/12 05:05:00;;;;;;;5.67;3.13;;;2.50;87.00;;;;;;5111222;28;20281;-64
2024/01/12 05:07:28;;;;;;;5.73;3.53;;;2.40;86.40;;;;;;5111438;28;20201;-63
2024/01/12 05:09:56;;;;;;;4.27;3.33;;;2.40;87.70;;;;;;5110997;28;20197;-63
2024/01/12 05:12:25;;;;;;;3.87;3.30;;;2.40;88.10;;;;;;5111222;28;20216;-64
2024/01/12 05:14:55;;;;;;;4.67;3.80;;;2.40;88.70;;;;;;5110990;28;20218;-64
2024/01/12 05:17:23;;;;;;;6.67;3.70;;;2.30;89.30;;;;;;5111007;28;20282;-64
2024/01/12 05:19:52;;;;;;;6.47;4.27;;;2.20;90.00;;;;;;5110641;28;20277;-64
2024/01/12 05:22:20;;;;;;;5.00;4.03;;;2.10;91.10;;;;;;5111061;28;20203;-63
2024/01/12 05:24:48;;;;;;;12.83;7.80;;;2.10;90.90;;;;;;5110906;28;20198;-64
2024/01/12 05:27:17;;;;;;;8.13;5.07;;;2.10;91.60;;;;;;5111020;28;20646;-63
2024/01/12 05:29:45;;;;;;;8.40;5.30;;;2.10;91.90;;;;;;5110779;28;20201;-63
2024/01/12 05:32:15;;;;;;;7.00;4.80;;;2.00;91.90;;;;;;5110580;28;20257;-65
2024/01/12 05:34:44;;;;;;;9.43;5.33;;;2.10;92.30;;;;;;5110577;28;20188;-64
2024/01/12 05:37:12;;;;;;;8.40;5.47;;;2.30;92.20;;;;;;5110730;28;20272;-64
2024/01/12 05:39:41;;;;;;;8.17;4.67;;;2.20;91.60;;;;;;5110678;28;20206;-64
2024/01/12 05:42:09;;;;;;;7.50;5.13;;;2.10;91.40;;;;;;5110477;28;20206;-64
2024/01/12 05:44:37;;;;;;;8.13;4.77;;;2.10;92.20;;;;;;5110575;28;20192;-64
2024/01/12 05:47:06;;;;;;;9.07;5.20;;;2.20;92.60;;;;;;5110594;28;20239;-64
2024/01/12 05:49:36;;;;;;;5.67;4.20;;;2.20;92.20;;;;;;5110069;28;20196;-64
2024/01/12 05:52:05;;;;;;;7.60;4.37;;;2.10;92.60;;;;;;5110191;28;20209;-65
2024/01/12 05:54:34;;;;;;;6.93;4.57;;;2.00;92.90;;;;;;5110882;28;20559;-65
2024/01/12 05:57:02;;;;;;;5.10;4.20;;;1.90;93.90;;;;;;5110091;28;20200;-66
2024/01/12 05:59:32;;;;;;;7.57;4.60;;;2.00;93.90;;;;;;5110062;28;20730;-65
2024/01/12 06:02:01;;;;;;;5.17;3.83;;;2.00;94.20;;;;;;5109751;28;20311;-64
2024/01/12 06:04:29;;;;;;;6.00;4.27;;;1.90;95.00;;;;;;5110005;28;20201;-66
2024/01/12 06:06:58;;;;;;;4.83;3.80;;;2.00;94.70;;;;;;5109670;28;20209;-65
2024/01/12 06:09:27;;;;;;;7.97;3.83;;;1.90;94.40;;;;;;5109451;28;20197;-65
2024/01/12 06:11:55;;;;;;;12.93;6.77;;;1.90;94.60;;;;;;5109911;28;20239;-64
2024/01/12 06:14:23;;;;;;;9.80;5.37;;;1.90;95.50;;;;;;5109858;28;20189;-64
2024/01/12 06:16:52;;;;;;;13.00;6.90;;;1.90;95.30;;;;;;5109534;28;20297;-64
2024/01/12 06:19:20;;;;;;;8.07;5.33;;;2.00;95.50;;;;;;5109331;28;20193;-64
2024/01/12 06:21:49;;;;;;;7.37;4.97;;;1.90;95.90;;;;;;5109389;28;20204;-65
2024/01/12 06:24:18;;;;;;;7.60;4.17;;;2.00;96.30;;;;;;5109730;28;20205;-65
2024/01/12 06:26:47;;;;;;;7.53;5.00;;;2.00;96.00;;;;;;5109593;28;20207;-65
2024/01/12 06:29:15;;;;;;;6.50;4.67;;;2.00;96.80;;;;;;5109227;28;20656;-64
2024/01/12 06:31:43;;;;;;;8.23;4.17;;;2.10;95.60;;;;;;5109337;28;20228;-65
2024/01/12 06:34:12;;;;;;;7.83;4.10;;;2.00;95.90;;;;;;5109090;28;20719;-65
2024/01/12 06:36:43;;;;;;;7.57;3.73;;;2.00;96.30;;;;;;5109555;28;20226;-65
2024/01/12 06:39:12;;;;;;;5.87;4.03;;;1.90;96.80;;;;;;5109480;28;20201;-66
2024/01/12 06:41:46;;;;;;;5.97;3.90;;;2.20;96.10;;;;;;5109327;28;20626;-65
2024/01/12 06:44:14;;;;;;;6.67;4.00;;;2.20;95.00;;;;;;5109147;28;20269;-65
2024/01/12 06:46:43;;;;;;;5.53;4.63;;;2.20;95.80;;;;;;5109286;28;20196;-67
2024/01/12 06:49:12;;;;;;;7.37;4.33;;;2.10;96.00;;;;;;5108972;28;20231;-65
2024/01/12 06:51:41;;;;;;;6.77;4.10;;;2.00;96.40;;;;;;5109015;28;20192;-66
2024/01/12 06:54:10;;;;;;;6.97;4.23;;;2.10;96.50;;;;;;5108908;28;20222;-66
2024/01/12 06:56:39;;;;;;;7.17;5.47;;;2.00;96.30;;;;;;5109129;28;20350;-66
2024/01/12 06:59:10;;;;;;;7.67;4.40;;;2.10;96.70;;;;;;5108919;28;20301;-66
2024/01/12 07:01:39;;;;;;;8.87;5.03;;;2.10;96.60;;;;;;5108514;28;20225;-64
2024/01/12 07:04:07;;;;;;;8.93;5.33;;;2.10;96.20;;;;;;5109112;28;20198;-64
2024/01/12 07:06:36;;;;;;;9.17;5.10;;;2.00;97.70;;;;;;5108871;28;20199;-63
2024/01/12 07:09:05;;;;;;;9.80;5.37;;;1.90;98.00;;;;;;5108805;28;20196;-65
2024/01/12 07:11:34;;;;;;;11.10;6.40;;;2.00;97.80;;;;;;5109028;28;20856;-64
2024/01/12 07:14:02;;;;;;;9.77;6.50;;;1.90;98.60;;;;;;5108197;28;20677;-64
2024/01/12 07:16:32;;;;;;;14.97;6.17;;;1.90;99.40;;;;;;5108781;28;20244;-63
2024/01/12 07:19:00;;;;;;;8.17;5.97;;;1.80;99.90;;;;;;5109584;28;20210;-65
2024/01/12 07:21:29;;;;;;;11.97;6.00;;;2.00;99.70;;;;;;5113159;28;20193;-64
2024/01/12 07:23:57;;;;;;;10.23;5.90;;;2.00;99.90;;;;;;5113131;28;20202;-66
2024/01/12 07:26:26;;;;;;;10.83;6.03;;;2.10;99.60;;;;;;5113174;28;20202;-65
2024/01/12 07:28:54;;;;;;;8.77;5.10;;;2.20;99.30;;;;;;5112964;28;20652;-65
2024/01/12 07:31:22;;;;;;;14.10;5.97;;;2.20;99.70;;;;;;5113071;28;20541;-65
2024/01/12 07:33:52;;;;;;;10.77;4.70;;;2.10;99.80;;;;;;5112768;28;20940;-64
2024/01/12 07:36:21;;;;;;;11.90;5.23;;;2.10;99.90;;;;;;5112720;28;20243;-65
2024/01/12 07:38:49;;;;;;;7.53;4.43;;;2.10;99.90;;;;;;5112791;28;20647;-63
2024/01/12 07:41:17;;;;;;;7.83;5.17;;;2.10;99.90;;;;;;5112863;28;20205;-65
2024/01/12 07:43:45;;;;;;;7.23;4.83;;;2.20;99.90;;;;;;5112834;28;20237;-65
2024/01/12 07:46:17;;;;;;;6.77;4.57;;;2.30;99.90;;;;;;5112724;28;20547;-65
2024/01/12 07:48:48;;;;;;;5.30;4.10;;;2.30;99.90;;;;;;5112550;28;20214;-65
2024/01/12 07:51:19;;;;;;;9.80;6.67;;;2.30;99.90;;;;;;5112482;28;20194;-65
2024/01/12 07:53:47;;;;;;;14.77;8.27;;;2.30;99.90;;;;;;5112540;28;20235;-65
2024/01/12 07:56:15;;;;;;;6.10;4.77;;;2.40;99.90;;;;;;5112395;28;20236;-65
2024/01/12 07:58:44;;;;;;;9.83;4.23;;;2.50;99.90;;;;;;5112424;28;20203;-65
2024/01/12 08:01:13;;;;;;;5.70;4.20;;;2.50;99.90;;;;;;5112328;28;20199;-65
2024/01/12 08:03:42;;;;;;;8.87;4.53;;;2.60;99.90;;;;;;5111888;28;20227;-64
2024/01/12 08:06:10;;;;;;;7.83;3.93;;;2.70;99.90;;;;;;5112481;28;20197;-64
2024/01/12 08:08:40;;;;;;;7.17;3.93;;;2.60;99.90;;;;;;5112337;28;20205;-65
2024/01/12 08:11:09;;;;;;;6.20;3.90;;;2.70;99.90;;;;;;5112096;28;20612;-65
2024/01/12 08:13:46;;;;;;;9.97;3.93;;;2.80;99.90;;;;;;5112209;28;20217;-65
2024/01/12 08:16:14;;;;;;;8.43;4.53;;;2.80;99.90;;;;;;5112104;28;20203;-66
2024/01/12 08:18:42;;;;;;;9.53;4.67;;;2.80;99.90;;;;;;5112037;28;20510;-65
2024/01/12 08:21:11;;;;;;;8.00;4.50;;;2.70;99.90;;;;;;5111519;28;20672;-65
2024/01/12 08:23:40;;;;;;;7.70;4.97;;;2.60;99.90;;;;;;5111911;28;20208;-65
2024/01/12 08:26:09;;;;;;;8.17;4.97;;;2.70;99.90;;;;;;5111766;28;20194;-64
2024/01/12 08:28:37;;;;;;;7.90;4.90;;;2.80;99.90;;;;;;5111796;28;20235;-66
2024/01/12 08:31:06;;;;;;;8.03;5.03;;;2.70;99.90;;;;;;5111089;28;20191;-64
2024/01/12 08:33:34;;;;;;;28.40;16.63;;;2.80;99.90;;;;;;5111647;28;20322;-64
2024/01/12 08:36:02;;;;;;;9.70;6.27;;;2.90;99.90;;;;;;5111721;28;20202;-65
2024/01/12 08:38:31;;;;;;;12.13;5.77;;;2.90;99.90;;;;;;5111660;28;20291;-66
2024/01/12 08:41:01;;;;;;;9.47;5.67;;;2.90;99.90;;;;;;5111929;28;20211;-65
2024/01/12 08:43:29;;;;;;;13.70;7.63;;;2.80;99.90;;;;;;5111749;28;20198;-66
2024/01/12 08:45:57;;;;;;;8.57;5.93;;;2.90;99.90;;;;;;5111744;28;20196;-66
2024/01/12 08:48:26;;;;;;;8.10;5.10;;;2.90;99.90;;;;;;5111585;28;20244;-65
2024/01/12 08:50:54;;;;;;;10.03;4.90;;;2.90;99.90;;;;;;5111122;28;20197;-66
2024/01/12 08:53:23;;;;;;;6.30;4.00;;;2.90;99.90;;;;;;5111694;28;20228;-66
2024/01/12 08:55:51;;;;;;;7.37;3.80;;;2.90;99.90;;;;;;5111420;28;20645;-63
2024/01/12 08:58:21;;;;;;;7.03;4.57;;;2.90;99.90;;;;;;5111362;28;20239;-66
2024/01/12 09:00:49;;;;;;;6.53;4.67;;;3.00;99.90;;;;;;5111162;28;20391;-65
2024/01/12 09:03:17;;;;;;;7.50;4.83;;;3.00;99.90;;;;;;5047451;28;20239;-66
2024/01/12 09:05:46;;;;;;;7.37;4.63;;;3.00;99.90;;;;;;5047814;28;20214;-64
2024/01/12 09:08:15;;;;;;;6.83;4.33;;;2.90;99.90;;;;;;5048146;28;20723;-64
2024/01/12 09:10:43;;;;;;;9.83;5.30;;;3.00;99.90;;;;;;5047880;28;20204;-65
2024/01/12 09:13:12;;;;;;;6.00;4.37;;;3.00;99.90;;;;;;5047920;28;20197;-65
2024/01/12 09:15:41;;;;;;;9.40;4.30;;;3.10;99.90;;;;;;5047735;28;20280;-65
2024/01/12 09:18:10;;;;;;;7.00;4.53;;;3.00;99.90;;;;;;5048127;28;20298;-65
2024/01/12 09:20:38;;;;;;;9.10;4.77;;;3.00;99.90;;;;;;5055803;28;20204;-65
2024/01/12 09:23:07;;;;;;;9.17;4.43;;;2.80;99.90;;;;;;5111076;28;20241;-65
2024/01/12 09:25:35;;;;;;;7.57;4.60;;;3.00;99.90;;;;;;5110908;28;20202;-65
2024/01/12 09:28:04;;;;;;;8.33;4.97;;;3.10;99.90;;;;;;5110963;28;20201;-65
2024/01/12 09:30:32;;;;;;;8.93;4.77;;;3.30;99.90;;;;;;5110865;28;20653;-64
2024/01/12 09:33:02;;;;;;;9.50;6.87;;;3.30;99.90;;;;;;5110442;28;20199;-63
2024/01/12 09:35:30;;;;;;;7.13;4.33;;;3.30;99.90;;;;;;5110571;28;20226;-64
2024/01/12 09:37:59;;;;;;;7.47;4.80;;;3.50;99.90;;;;;;5110476;28;20683;-64
2024/01/12 09:40:27;;;;;;;8.17;4.30;;;3.50;99.90;;;;;;5110377;28;20203;-65
2024/01/12 09:42:57;;;;;;;7.83;4.90;;;3.50;99.90;;;;;;5109332;28;20551;-64
2024/01/12 09:45:26;;;;;;;8.80;4.23;;;3.50;99.90;;;;;;5110079;28;20264;-63
2024/01/12 09:47:55;;;;;;;7.37;5.17;;;3.70;99.90;;;;;;5109962;28;20665;-63
2024/01/12 09:50:25;;;;;;;7.17;4.43;;;3.70;99.90;;;;;;5109966;28;20203;-64
2024/01/12 09:52:53;;;;;;;6.53;4.50;;;3.60;99.90;;;;;;5110412;28;20199;-65
2024/01/12 09:55:22;;;;;;;7.27;4.67;;;3.70;99.90;;;;;;5109852;28;20318;-64
2024/01/12 09:57:50;;;;;;;8.33;4.90;;;3.80;99.90;;;;;;5109861;28;20194;-65
2024/01/12 10:00:21;;;;;;;5.87;4.60;;;3.90;99.90;;;;;;5110022;28;20203;-64
2024/01/12 10:02:49;;;;;;;8.93;5.03;;;4.00;99.90;;;;;;5109585;28;20238;-65
2024/01/12 10:05:18;;;;;;;7.73;5.00;;;4.40;99.90;;;;;;5109987;28;20281;-64
2024/01/12 10:07:47;;;;;;;6.73;4.77;;;4.50;99.90;;;;;;5109572;28;20210;-63
2024/01/12 10:10:16;;;;;;;10.63;4.77;;;4.50;99.90;;;;;;5109545;28;20191;-65
2024/01/12 10:12:49;;;;;;;7.13;4.67;;;4.30;99.90;;;;;;5109727;28;20192;-65
2024/01/12 10:15:17;;;;;;;7.80;5.50;;;4.50;99.90;;;;;;5109624;28;20222;-66
2024/01/12 10:17:47;;;;;;;6.47;4.50;;;4.60;99.90;;;;;;5109475;28;20680;-65
2024/01/12 10:20:16;;;;;;;7.97;5.43;;;4.60;99.90;;;;;;5104477;27;20219;-63
2024/01/12 10:22:44;;;;;;;6.67;5.20;;;4.70;99.90;;;;;;5105116;28;20241;-64
2024/01/12 10:25:15;;;;;;;7.20;5.83;;;4.70;99.90;;;;;;5110164;28;20193;-64
2024/01/12 10:27:54;;;;;;;9.37;6.57;;;4.70;99.90;;;;;;5109937;28;20199;-64
2024/01/12 10:30:22;;;;;;;6.87;5.37;;;4.60;99.90;;;;;;5110057;28;20191;-63
2024/01/12 10:32:52;;;;;;;8.03;5.70;;;4.70;99.90;;;;;;5091254;28;20668;-63
2024/01/12 10:35:21;;;;;;;8.03;5.40;;;4.70;99.90;;;;;;5109303;28;20216;-66
2024/01/12 10:37:50;;;;;;;13.60;6.87;;;4.60;99.90;;;;;;5109703;28;20235;-65
2024/01/12 10:40:20;;;;;;;6.50;4.80;;;4.70;99.90;;;;;;5109658;28;20202;-65
2024/01/12 10:42:49;;;;;;;7.80;5.10;;;4.60;99.90;;;;;;5109803;28;20192;-65
2024/01/12 10:45:21;;;;;;;6.60;4.50;;;4.60;99.90;;;;;;5109618;28;20192;-65
2024/01/12 10:48:01;;;;;;;7.63;4.93;;;4.60;99.90;;;;;;5088615;28;20641;-65
2024/01/12 10:50:36;;;;;;;7.73;5.00;;;4.60;99.90;;;;;;5089188;28;20203;-64
2024/01/12 10:53:11;;;;;;;4.60;4.00;;;4.70;99.90;;;;;;5089065;28;20615;-64
2024/01/12 10:55:46;;;;;;;8.90;4.70;;;4.70;99.90;;;;;;5088958;28;20230;-64
2024/01/12 10:58:17;;;;;;;7.20;4.10;;;4.70;99.90;;;;;;5089486;28;20188;-65
2024/01/12 11:00:46;;;;;;;8.70;5.27;;;4.70;99.90;;;;;;5089151;28;20623;-64
2024/01/12 11:03:16;;;;;;;9.03;6.57;;;4.80;99.90;;;;;;5088681;28;20227;-63
2024/01/12 11:05:48;;;;;;;13.13;7.23;;;5.00;99.90;;;;;;5089090;28;20211;-65
2024/01/12 11:08:16;;;;;;;5.33;4.83;;;4.90;99.90;;;;;;5089232;28;20605;-64
2024/01/12 11:10:52;;;;;;;6.07;4.53;;;4.90;99.90;;;;;;5089108;28;20752;-64
2024/01/12 11:13:21;;;;;;;8.27;4.47;;;4.90;99.90;;;;;;5089220;28;20223;-66
2024/01/12 11:15:52;;;;;;;4.90;4.40;;;5.00;99.90;;;;;;5089097;28;20277;-65
2024/01/12 11:18:20;;;;;;;8.77;4.73;;;4.90;99.90;;;;;;5088728;28;20197;-66
2024/01/12 11:20:49;;;;;;;9.23;6.40;;;5.00;99.90;;;;;;5070646;28;20590;-65
2024/01/12 11:23:17;;;;;;;7.80;5.20;;;5.00;99.90;;;;;;5089129;28;20206;-65
2024/01/12 11:25:47;;;;;;;7.47;5.30;;;5.10;99.90;;;;;;5089237;28;20204;-64
2024/01/12 11:28:16;;;;;;;4.77;4.17;;;5.20;99.90;;;;;;5088966;28;20207;-63
2024/01/12 11:30:44;;;;;;;6.53;4.70;;;5.20;99.90;;;;;;5089226;28;20267;-64
2024/01/12 11:33:17;;;;;;;5.53;4.60;;;5.10;99.90;;;;;;5088161;28;20198;-64
2024/01/12 11:35:51;;;;;;;6.90;4.80;;;5.20;99.90;;;;;;5088918;28;20222;-65
2024/01/12 11:38:20;;;;;;;7.37;4.23;;;5.10;99.90;;;;;;5095753;28;20245;-65
2024/01/12 11:40:50;;;;;;;6.67;4.27;;;5.10;99.90;;;;;;5106063;28;20271;-64
2024/01/12 11:43:19;;;;;;;9.07;4.67;;;5.20;99.90;;;;;;5101548;28;20387;-65
2024/01/12 11:45:49;;;;;;;14.27;7.03;;;5.20;99.90;;;;;;5092757;28;20218;-65
2024/01/12 11:48:17;;;;;;;5.97;4.60;;;5.20;99.90;;;;;;5088819;28;20203;-64
2024/01/12 11:50:46;;;;;;;10.33;5.53;;;5.20;99.90;;;;;;5088679;28;20208;-64
2024/01/12 11:53:14;;;;;;;9.83;5.67;;;5.10;99.90;;;;;;5103781;28;20266;-64
2024/01/12 11:55:43;;;;;;;10.03;5.93;;;5.10;99.90;;;;;;5109044;28;20223;-64
2024/01/12 11:58:12;;;;;;;7.33;5.73;;;5.20;99.90;;;;;;5108408;28;20200;-64
2024/01/12 12:00:41;;;;;;;8.37;6.50;;;5.30;99.90;;;;;;5108914;28;20191;-65
2024/01/12 12:03:10;;;;;;;10.83;6.83;;;5.30;99.90;;;;;;5108717;28;20234;-65
2024/01/12 12:05:38;;;;;;;6.70;5.40;;;5.40;99.90;;;;;;5109323;28;20210;-65
2024/01/12 12:08:07;;;;;;;11.40;6.77;;;5.30;99.90;;;;;;5112863;28;20191;-65
2024/01/12 12:10:36;;;;;;;10.10;6.80;;;5.30;99.90;;;;;;5112643;28;20198;-64
2024/01/12 12:13:11;;;;;;;4.50;3.97;;;5.50;99.90;;;;;;5112413;28;20626;-64
2024/01/12 12:15:41;;;;;;;7.47;4.47;;;5.30;99.90;;;;;;5112582;28;20245;-65
2024/01/12 12:18:09;;;;;;;11.63;7.03;;;5.30;99.90;;;;;;5112752;28;20646;-63
2024/01/12 12:20:38;;;;;;;7.23;5.40;;;5.30;99.90;;;;;;5112456;28;20486;-65
2024/01/12 12:23:07;;;;;;;5.40;4.70;;;5.30;99.90;;;;;;5112236;28;20203;-65
2024/01/12 12:25:35;;;;;;;12.30;6.20;;;5.20;99.90;;;;;;5112148;28;20264;-65
2024/01/12 12:28:04;;;;;;;7.60;4.83;;;5.30;99.90;;;;;;5112200;28;20287;-64
2024/01/12 12:30:33;;;;;;;9.57;6.10;;;5.40;99.90;;;;;;5112052;28;20344;-63
2024/01/12 12:33:03;;;;;;;7.50;5.70;;;5.40;99.90;;;;;;5111829;28;20662;-64
2024/01/12 12:35:32;;;;;;;6.93;4.57;;;5.40;99.90;;;;;;5112030;28;20204;-63
2024/01/12 12:38:02;;;;;;;5.50;4.80;;;5.30;99.90;;;;;;5111762;28;20199;-64
2024/01/12 12:40:31;;;;;;;8.17;5.00;;;5.30;99.90;;;;;;5111126;28;20201;-64
2024/01/12 12:43:00;;;;;;;5.67;4.47;;;5.20;99.90;;;;;;5111724;28;20199;-64
2024/01/12 12:45:28;;;;;;;7.63;5.23;;;5.30;99.90;;;;;;5111788;28;20196;-63
2024/01/12 12:47:58;;;;;;;6.23;5.03;;;5.40;99.90;;;;;;5111899;28;20196;-64
2024/01/12 12:50:29;;;;;;;5.90;5.13;;;5.40;99.90;;;;;;5111567;28;20199;-64
2024/01/12 12:52:57;;;;;;;8.60;4.97;;;5.50;99.90;;;;;;5111170;28;20274;-65
2024/01/12 12:55:26;;;;;;;7.67;5.07;;;5.40;99.90;;;;;;5111680;28;20665;-66
2024/01/12 12:57:55;;;;;;;8.87;5.17;;;5.30;99.90;;;;;;5111549;28;20227;-66
2024/01/12 13:00:23;;;;;;;13.23;7.40;;;5.30;99.90;;;;;;5111448;28;20204;-64
2024/01/12 13:02:51;;;;;;;9.93;6.80;;;5.10;99.90;;;;;;5111167;28;20685;-63